Time;durP1;ratioP1;P1;durP2;ratioP2;P2;SDS_P1;SDS_P2;PMS_P1;PMS_P2;Temp;Humidity;BMP_temperature;BMP_pressure;BME280_temperature;BME280_humidity;BME280_pressure;Samples;Min_cycle;Max_cycle;Signal;HPM_P1;HPM_P2
2023/11/25 00:00:20;;;;;;;7.47;3.00;;;;;;;;;;683167;28;904;-67
2023/11/25 00:00:43;;;;;;;7.22;2.97;;;;;;;;;;684197;28;938;-67
2023/11/25 00:01:03;;;;;;;7.25;2.78;;;;;;;;;;685368;28;4911;-67
2023/11/25 00:01:24;;;;;;;6.28;2.70;;;;;;;;;;688576;28;1056;-67
2023/11/25 00:01:44;;;;;;;6.13;2.77;;;;;;;;;;689571;28;2052;-68
2023/11/25 00:02:04;;;;;;;7.83;3.10;;;;;;;;;;690259;28;984;-67
2023/11/25 00:02:25;;;;;;;7.78;2.90;;;;;;;;;;690643;28;885;-67
2023/11/25 00:02:45;;;;;;;8.03;2.67;;;;;;;;;;690294;28;986;-68
2023/11/25 00:03:05;;;;;;;7.03;2.63;;;;;;;;;;690596;28;781;-66
2023/11/25 00:03:28;;;;;;;5.68;2.50;;;;;;;;;;690336;28;971;-68
2023/11/25 00:03:49;;;;;;;6.88;2.88;;;;;;;;;;690389;28;889;-68
2023/11/25 00:04:09;;;;;;;8.93;2.90;;;;;;;;;;689853;28;4501;-67
2023/11/25 00:04:29;;;;;;;7.72;2.90;;;;;;;;;;689573;28;1877;-67
2023/11/25 00:04:49;;;;;;;6.50;2.70;;;;;;;;;;690827;28;888;-68
2023/11/25 00:05:10;;;;;;;5.87;2.80;;;;;;;;;;690040;28;876;-66
2023/11/25 00:05:30;;;;;;;7.20;2.72;;;;;;;;;;688778;28;1896;-68
2023/11/25 00:05:51;;;;;;;6.90;2.73;;;;;;;;;;690468;28;798;-68
2023/11/25 00:06:11;;;;;;;6.95;2.92;;;;;;;;;;690450;28;1298;-68
2023/11/25 00:06:32;;;;;;;6.40;2.95;;;;;;;;;;689026;28;1769;-67
2023/11/25 00:06:53;;;;;;;7.00;2.88;;;;;;;;;;689179;28;758;-68
2023/11/25 00:07:14;;;;;;;7.17;2.90;;;;;;;;;;690261;28;4467;-66
2023/11/25 00:07:35;;;;;;;9.00;2.90;;;;;;;;;;688804;28;1752;-68
2023/11/25 00:07:56;;;;;;;7.43;2.70;;;;;;;;;;690115;28;1308;-67
2023/11/25 00:08:19;;;;;;;7.03;2.78;;;;;;;;;;690332;28;1087;-67
2023/11/25 00:08:40;;;;;;;8.23;2.85;;;;;;;;;;688867;28;1813;-68
2023/11/25 00:09:01;;;;;;;10.32;3.00;;;;;;;;;;690446;28;888;-68
2023/11/25 00:09:24;;;;;;;7.93;2.67;;;;;;;;;;689906;28;1272;-67
2023/11/25 00:09:44;;;;;;;9.57;2.80;;;;;;;;;;689000;28;1750;-67
2023/11/25 00:10:07;;;;;;;8.30;2.67;;;;;;;;;;689452;28;4367;-68
2023/11/25 00:10:28;;;;;;;8.13;2.75;;;;;;;;;;690422;28;813;-67
2023/11/25 00:10:51;;;;;;;7.32;3.00;;;;;;;;;;690048;28;992;-67
2023/11/25 00:11:14;;;;;;;6.57;2.77;;;;;;;;;;690419;28;1192;-67
2023/11/25 00:11:35;;;;;;;6.13;2.67;;;;;;;;;;688690;28;1484;-67
2023/11/25 00:11:55;;;;;;;7.33;2.70;;;;;;;;;;690508;28;1261;-67
2023/11/25 00:12:15;;;;;;;6.07;2.67;;;;;;;;;;690172;28;1162;-67
2023/11/25 00:12:35;;;;;;;7.22;2.55;;;;;;;;;;689603;28;2393;-68
2023/11/25 00:12:56;;;;;;;8.10;2.70;;;;;;;;;;687703;28;957;-67
2023/11/25 00:13:16;;;;;;;6.73;2.33;;;;;;;;;;687140;28;4845;-67
2023/11/25 00:13:36;;;;;;;7.68;2.50;;;;;;;;;;685835;28;2433;-67
2023/11/25 00:13:57;;;;;;;6.60;2.33;;;;;;;;;;684699;28;1193;-67
2023/11/25 00:14:17;;;;;;;6.50;2.30;;;;;;;;;;685340;28;750;-68
2023/11/25 00:14:39;;;;;;;7.45;2.50;;;;;;;;;;682526;28;2361;-67
2023/11/25 00:14:59;;;;;;;6.30;2.22;;;;;;;;;;682691;28;1345;-67
2023/11/25 00:15:20;;;;;;;6.57;2.20;;;;;;;;;;683711;28;867;-67
2023/11/25 00:15:40;;;;;;;5.93;2.20;;;;;;;;;;685412;28;2642;-67
2023/11/25 00:16:01;;;;;;;5.55;2.35;;;;;;;;;;685324;28;1245;-68
2023/11/25 00:16:21;;;;;;;5.83;2.30;;;;;;;;;;685332;28;4417;-68
2023/11/25 00:16:42;;;;;;;6.90;2.40;;;;;;;;;;690142;28;2039;-67
2023/11/25 00:17:02;;;;;;;7.72;2.60;;;;;;;;;;689858;28;781;-68
2023/11/25 00:17:24;;;;;;;6.90;2.50;;;;;;;;;;690510;28;762;-67
2023/11/25 00:17:46;;;;;;;6.18;2.20;;;;;;;;;;687882;28;2300;-67
2023/11/25 00:18:07;;;;;;;6.15;2.22;;;;;;;;;;690146;28;1386;-68
2023/11/25 00:18:28;;;;;;;5.65;2.25;;;;;;;;;;690525;28;928;-67
2023/11/25 00:18:48;;;;;;;7.60;2.10;;;;;;;;;;689019;28;2388;-67
2023/11/25 00:19:10;;;;;;;8.88;2.40;;;;;;;;;;689175;28;4476;-68
2023/11/25 00:19:31;;;;;;;6.10;2.40;;;;;;;;;;690551;28;841;-67
2023/11/25 00:19:51;;;;;;;6.73;2.13;;;;;;;;;;689735;28;1236;-67
2023/11/25 00:20:15;;;;;;;6.70;1.90;;;;;;;;;;685532;28;833;-67
2023/11/25 00:20:36;;;;;;;7.00;2.15;;;;;;;;;;687260;28;1988;-67
2023/11/25 00:20:56;;;;;;;6.27;2.10;;;;;;;;;;687186;28;1161;-67
2023/11/25 00:21:17;;;;;;;7.43;2.45;;;;;;;;;;687183;28;1306;-67
2023/11/25 00:21:43;;;;;;;7.17;2.50;;;;;;;;;;686530;28;2279;-67
2023/11/25 00:22:04;;;;;;;6.18;2.10;;;;;;;;;;686025;28;4576;-67
2023/11/25 00:22:24;;;;;;;7.22;2.20;;;;;;;;;;690647;28;916;-67
2023/11/25 00:22:45;;;;;;;8.38;2.30;;;;;;;;;;690215;28;1178;-67
2023/11/25 00:23:05;;;;;;;6.00;2.10;;;;;;;;;;690505;28;1323;-67
2023/11/25 00:23:26;;;;;;;6.40;2.15;;;;;;;;;;689089;28;5035;-67
2023/11/25 00:23:56;;;;;;;6.07;2.10;;;;;;;;;;689203;28;1058;-67
2023/11/25 00:24:16;;;;;;;7.53;1.90;;;;;;;;;;690075;28;857;-68
2023/11/25 00:24:36;;;;;;;7.05;2.10;;;;;;;;;;689179;28;1758;-67
2023/11/25 00:24:57;;;;;;;5.17;2.00;;;;;;;;;;690037;28;1418;-68
2023/11/25 00:25:18;;;;;;;5.43;1.90;;;;;;;;;;689811;28;4654;-67
2023/11/25 00:25:38;;;;;;;6.25;1.80;;;;;;;;;;689770;28;2389;-67
2023/11/25 00:25:59;;;;;;;5.57;1.90;;;;;;;;;;690754;28;845;-66
2023/11/25 00:26:19;;;;;;;6.13;1.70;;;;;;;;;;689394;28;963;-68
2023/11/25 00:26:50;;;;;;;8.75;2.10;;;;;;;;;;689154;28;1783;-67
2023/11/25 00:27:10;;;;;;;6.93;2.07;;;;;;;;;;690595;28;897;-67
2023/11/25 00:27:30;;;;;;;6.10;2.13;;;;;;;;;;689749;28;947;-68
2023/11/25 00:27:51;;;;;;;5.32;2.13;;;;;;;;;;689279;28;2188;-67
2023/11/25 00:28:11;;;;;;;6.23;2.10;;;;;;;;;;686600;28;4275;-67
2023/11/25 00:28:32;;;;;;;6.75;1.92;;;;;;;;;;687769;28;821;-67
2023/11/25 00:28:52;;;;;;;6.10;1.93;;;;;;;;;;685891;28;2305;-67
2023/11/25 00:29:15;;;;;;;7.30;2.38;;;;;;;;;;687608;28;785;-67
2023/11/25 00:29:35;;;;;;;7.75;2.38;;;;;;;;;;686082;28;1796;-67
2023/11/25 00:29:56;;;;;;;7.23;2.43;;;;;;;;;;685003;28;1492;-67
2023/11/25 00:30:16;;;;;;;6.53;2.30;;;;;;;;;;685147;28;822;-67
2023/11/25 00:30:37;;;;;;;7.57;2.17;;;;;;;;;;684385;28;1782;-68
2023/11/25 00:30:57;;;;;;;6.22;2.00;;;;;;;;;;689448;28;916;-68
2023/11/25 00:31:18;;;;;;;5.43;2.00;;;;;;;;;;681984;28;4497;-67
2023/11/25 00:31:39;;;;;;;6.35;2.20;;;;;;;;;;683873;28;2413;-67
2023/11/25 00:32:00;;;;;;;6.80;2.20;;;;;;;;;;688543;28;873;-67
2023/11/25 00:32:21;;;;;;;7.13;2.08;;;;;;;;;;686638;28;817;-67
2023/11/25 00:32:41;;;;;;;7.28;2.20;;;;;;;;;;684357;28;1248;-67
2023/11/25 00:33:03;;;;;;;6.13;2.27;;;;;;;;;;685236;28;932;-67
2023/11/25 00:33:23;;;;;;;7.53;2.30;;;;;;;;;;686976;28;1254;-67
2023/11/25 00:33:44;;;;;;;6.40;1.80;;;;;;;;;;688420;28;1765;-66
2023/11/25 00:34:04;;;;;;;6.23;1.70;;;;;;;;;;687730;28;4485;-67
2023/11/25 00:34:25;;;;;;;6.50;1.83;;;;;;;;;;687800;28;1323;-67
2023/11/25 00:34:46;;;;;;;7.03;2.00;;;;;;;;;;687222;28;1706;-67
2023/11/25 00:35:07;;;;;;;5.72;1.88;;;;;;;;;;685755;28;1373;-67
2023/11/25 00:35:30;;;;;;;5.28;1.80;;;;;;;;;;687220;28;909;-66
2023/11/25 00:35:50;;;;;;;5.28;1.60;;;;;;;;;;683445;28;2134;-68
2023/11/25 00:36:11;;;;;;;4.70;1.57;;;;;;;;;;687189;28;1327;-67
2023/11/25 00:36:31;;;;;;;6.45;1.77;;;;;;;;;;687069;28;1954;-67
2023/11/25 00:36:52;;;;;;;6.53;1.87;;;;;;;;;;685607;28;1489;-67
2023/11/25 00:37:12;;;;;;;6.32;2.00;;;;;;;;;;684066;28;4290;-66
2023/11/25 00:37:33;;;;;;;5.33;1.93;;;;;;;;;;684788;28;930;-67
2023/11/25 00:37:53;;;;;;;5.97;2.00;;;;;;;;;;682557;28;916;-67
2023/11/25 00:38:14;;;;;;;6.13;2.03;;;;;;;;;;683302;28;841;-67
2023/11/25 00:38:34;;;;;;;7.17;2.30;;;;;;;;;;682884;28;2053;-66
2023/11/25 00:38:54;;;;;;;6.43;2.17;;;;;;;;;;683701;28;1484;-67
2023/11/25 00:39:15;;;;;;;7.03;2.10;;;;;;;;;;688154;28;812;-68
2023/11/25 00:39:35;;;;;;;5.13;2.00;;;;;;;;;;686793;28;1845;-67
2023/11/25 00:39:55;;;;;;;5.32;1.80;;;;;;;;;;687135;28;1638;-68
2023/11/25 00:40:16;;;;;;;6.67;1.90;;;;;;;;;;687066;28;4522;-65
2023/11/25 00:40:36;;;;;;;5.70;1.90;;;;;;;;;;689153;28;2476;-68
2023/11/25 00:41:00;;;;;;;5.93;2.08;;;;;;;;;;687402;28;1291;-67
2023/11/25 00:41:21;;;;;;;5.65;2.10;;;;;;;;;;687341;28;845;-67
2023/11/25 00:41:41;;;;;;;4.97;1.80;;;;;;;;;;687425;28;1598;-67
2023/11/25 00:42:02;;;;;;;7.90;2.05;;;;;;;;;;687936;28;936;-67
2023/11/25 00:42:23;;;;;;;5.00;2.03;;;;;;;;;;688464;28;5995;-68
2023/11/25 00:42:43;;;;;;;5.30;1.80;;;;;;;;;;687726;28;1052;-67
2023/11/25 00:43:04;;;;;;;5.45;2.03;;;;;;;;;;688053;28;4415;-67
2023/11/25 00:43:25;;;;;;;4.63;1.90;;;;;;;;;;685734;28;1604;-68
2023/11/25 00:43:45;;;;;;;5.05;1.70;;;;;;;;;;684848;28;2448;-67
2023/11/25 00:44:09;;;;;;;5.85;1.73;;;;;;;;;;685682;28;1352;-67
2023/11/25 00:44:29;;;;;;;7.13;2.27;;;;;;;;;;683359;28;884;-67
2023/11/25 00:44:49;;;;;;;5.67;1.87;;;;;;;;;;683564;28;1929;-66
2023/11/25 00:45:10;;;;;;;6.95;1.90;;;;;;;;;;684414;28;1388;-66
2023/11/25 00:45:30;;;;;;;7.17;1.70;;;;;;;;;;685401;28;1248;-66
2023/11/25 00:45:51;;;;;;;5.85;1.77;;;;;;;;;;685084;28;1871;-67
2023/11/25 00:46:12;;;;;;;5.18;1.80;;;;;;;;;;689206;28;4524;-68
2023/11/25 00:46:36;;;;;;;5.80;1.70;;;;;;;;;;690011;28;1034;-67
2023/11/25 00:46:56;;;;;;;6.88;1.83;;;;;;;;;;689441;28;939;-67
2023/11/25 00:47:17;;;;;;;7.32;1.85;;;;;;;;;;688898;28;1540;-67
2023/11/25 00:47:40;;;;;;;6.60;1.97;;;;;;;;;;686460;28;1876;-67
2023/11/25 00:48:00;;;;;;;5.68;1.80;;;;;;;;;;690266;28;829;-66
2023/11/25 00:48:21;;;;;;;8.93;2.00;;;;;;;;;;689784;28;1356;-66
2023/11/25 00:48:43;;;;;;;7.10;2.00;;;;;;;;;;688729;28;1706;-66
2023/11/25 00:49:06;;;;;;;7.63;2.20;;;;;;;;;;689497;28;4477;-67
2023/11/25 00:49:27;;;;;;;5.72;1.85;;;;;;;;;;689779;28;1028;-66
2023/11/25 00:49:48;;;;;;;5.45;1.77;;;;;;;;;;688847;28;1068;-66
2023/11/25 00:50:10;;;;;;;6.22;2.28;;;;;;;;;;687927;28;874;-67
2023/11/25 00:50:30;;;;;;;6.60;2.03;;;;;;;;;;683795;28;868;-66
2023/11/25 00:50:51;;;;;;;6.50;1.80;;;;;;;;;;686189;28;2512;-67
2023/11/25 00:51:11;;;;;;;6.40;1.70;;;;;;;;;;686772;28;932;-67
2023/11/25 00:51:31;;;;;;;5.05;1.70;;;;;;;;;;687131;28;951;-67
2023/11/25 00:51:52;;;;;;;4.67;1.80;;;;;;;;;;684959;28;1886;-68
2023/11/25 00:52:12;;;;;;;6.43;1.95;;;;;;;;;;682526;28;4396;-67
2023/11/25 00:52:38;;;;;;;7.43;2.00;;;;;;;;;;683852;28;1321;-66
2023/11/25 00:52:59;;;;;;;6.95;1.83;;;;;;;;;;687227;28;1003;-67
2023/11/25 00:53:19;;;;;;;7.13;1.90;;;;;;;;;;683848;28;1379;-66
2023/11/25 00:53:39;;;;;;;6.33;2.03;;;;;;;;;;682084;28;1940;-67
2023/11/25 00:54:00;;;;;;;6.90;1.88;;;;;;;;;;683203;28;856;-67
2023/11/25 00:54:20;;;;;;;7.83;1.80;;;;;;;;;;685646;28;1286;-67
2023/11/25 00:54:46;;;;;;;6.88;1.92;;;;;;;;;;684738;28;1760;-67
2023/11/25 00:55:10;;;;;;;6.40;1.80;;;;;;;;;;684483;28;4474;-66
2023/11/25 00:55:31;;;;;;;6.00;1.80;;;;;;;;;;684736;28;817;-67
2023/11/25 00:55:52;;;;;;;5.10;1.85;;;;;;;;;;687310;28;1779;-68
2023/11/25 00:56:12;;;;;;;6.43;1.77;;;;;;;;;;688957;28;1538;-67
2023/11/25 00:56:32;;;;;;;6.32;1.98;;;;;;;;;;689281;28;1968;-66
2023/11/25 00:56:53;;;;;;;6.97;2.20;;;;;;;;;;684040;28;2517;-67
2023/11/25 00:57:14;;;;;;;5.80;1.90;;;;;;;;;;687607;28;903;-67
2023/11/25 00:57:35;;;;;;;6.30;2.00;;;;;;;;;;684358;28;1347;-67
2023/11/25 00:57:58;;;;;;;6.07;2.10;;;;;;;;;;684391;28;810;-67
2023/11/25 00:58:18;;;;;;;5.65;1.80;;;;;;;;;;683650;28;4323;-67
2023/11/25 00:58:39;;;;;;;6.43;1.80;;;;;;;;;;684259;28;1865;-67
2023/11/25 00:58:59;;;;;;;6.43;1.73;;;;;;;;;;687420;28;916;-67
2023/11/25 00:59:19;;;;;;;6.07;1.93;;;;;;;;;;687941;28;1303;-67
2023/11/25 00:59:40;;;;;;;5.60;1.70;;;;;;;;;;689010;28;1825;-67
2023/11/25 01:00:00;;;;;;;6.17;1.70;;;;;;;;;;685140;28;923;-67
2023/11/25 01:00:25;;;;;;;6.25;1.88;;;;;;;;;;687680;28;909;-66
2023/11/25 01:00:45;;;;;;;7.60;1.77;;;;;;;;;;688556;28;2330;-67
2023/11/25 01:01:05;;;;;;;7.07;1.80;;;;;;;;;;688881;28;4299;-67
2023/11/25 01:01:26;;;;;;;7.00;1.83;;;;;;;;;;690059;28;884;-67
2023/11/25 01:01:46;;;;;;;8.32;1.90;;;;;;;;;;689225;28;1695;-67
2023/11/25 01:02:08;;;;;;;6.00;1.80;;;;;;;;;;689815;28;2256;-67
2023/11/25 01:02:28;;;;;;;5.43;1.80;;;;;;;;;;690284;28;876;-67
2023/11/25 01:02:49;;;;;;;5.40;2.00;;;;;;;;;;689405;28;1543;-67
2023/11/25 01:03:09;;;;;;;5.78;2.05;;;;;;;;;;690158;28;912;-67
2023/11/25 01:03:30;;;;;;;5.67;1.90;;;;;;;;;;684826;28;900;-67
2023/11/25 01:03:50;;;;;;;5.18;1.73;;;;;;;;;;683275;28;1561;-67
2023/11/25 01:04:11;;;;;;;6.30;2.00;;;;;;;;;;683838;28;4718;-67
2023/11/25 01:04:32;;;;;;;5.25;1.90;;;;;;;;;;685098;28;1183;-67
2023/11/25 01:04:52;;;;;;;5.70;1.70;;;;;;;;;;684014;28;1574;-67
2023/11/25 01:05:13;;;;;;;7.60;1.80;;;;;;;;;;684957;28;1347;-67
2023/11/25 01:05:33;;;;;;;8.37;1.87;;;;;;;;;;687431;28;1448;-68
2023/11/25 01:05:54;;;;;;;6.05;1.63;;;;;;;;;;686403;28;2048;-67
2023/11/25 01:06:15;;;;;;;4.70;1.60;;;;;;;;;;687302;28;1422;-67
2023/11/25 01:06:35;;;;;;;5.23;1.70;;;;;;;;;;687559;28;884;-66
2023/11/25 01:06:55;;;;;;;5.32;1.50;;;;;;;;;;686693;28;1844;-67
2023/11/25 01:07:17;;;;;;;5.03;1.50;;;;;;;;;;686199;28;4318;-67
2023/11/25 01:07:38;;;;;;;5.80;1.60;;;;;;;;;;686300;28;1821;-67
2023/11/25 01:07:58;;;;;;;5.55;1.73;;;;;;;;;;686698;28;1055;-67
2023/11/25 01:08:20;;;;;;;5.73;1.80;;;;;;;;;;687342;28;975;-67
2023/11/25 01:08:40;;;;;;;5.20;1.70;;;;;;;;;;687346;28;1748;-67
2023/11/25 01:09:01;;;;;;;6.77;1.70;;;;;;;;;;690548;28;862;-67
2023/11/25 01:09:25;;;;;;;5.45;1.67;;;;;;;;;;689670;28;805;-66
2023/11/25 01:09:51;;;;;;;6.38;1.95;;;;;;;;;;689555;28;1550;-67
2023/11/25 01:10:12;;;;;;;5.53;1.80;;;;;;;;;;689246;28;4465;-67
2023/11/25 01:10:32;;;;;;;7.57;1.70;;;;;;;;;;690041;28;777;-67
2023/11/25 01:10:53;;;;;;;7.13;2.15;;;;;;;;;;688986;28;1560;-67
2023/11/25 01:11:16;;;;;;;6.43;1.80;;;;;;;;;;690396;28;1103;-67
2023/11/25 01:11:37;;;;;;;5.55;1.60;;;;;;;;;;685459;28;2019;-67
2023/11/25 01:11:57;;;;;;;5.47;1.77;;;;;;;;;;687583;28;1198;-67
2023/11/25 01:12:21;;;;;;;4.78;1.90;;;;;;;;;;685856;28;802;-67
2023/11/25 01:12:45;;;;;;;5.35;1.77;;;;;;;;;;687705;28;963;-67
2023/11/25 01:13:05;;;;;;;5.80;1.80;;;;;;;;;;688577;28;4435;-67
2023/11/25 01:13:26;;;;;;;5.87;2.20;;;;;;;;;;688256;28;1291;-67
2023/11/25 01:13:49;;;;;;;6.90;2.05;;;;;;;;;;685840;28;1771;-67
2023/11/25 01:14:12;;;;;;;6.33;2.00;;;;;;;;;;684773;28;852;-67
2023/11/25 01:14:32;;;;;;;7.45;2.00;;;;;;;;;;687549;28;1339;-67
2023/11/25 01:14:54;;;;;;;5.22;1.75;;;;;;;;;;685679;28;1733;-67
2023/11/25 01:15:15;;;;;;;4.07;1.65;;;;;;;;;;683641;28;1493;-68
2023/11/25 01:15:38;;;;;;;6.22;1.77;;;;;;;;;;685770;28;1368;-67
2023/11/25 01:16:00;;;;;;;6.60;1.77;;;;;;;;;;685911;28;1037;-67
2023/11/25 01:16:20;;;;;;;6.63;1.70;;;;;;;;;;684312;28;4417;-68
2023/11/25 01:16:40;;;;;;;6.95;1.85;;;;;;;;;;686596;28;1914;-67
2023/11/25 01:17:01;;;;;;;6.00;1.70;;;;;;;;;;685309;28;1333;-67
2023/11/25 01:17:23;;;;;;;5.40;1.60;;;;;;;;;;688418;28;912;-67
2023/11/25 01:17:43;;;;;;;6.85;1.75;;;;;;;;;;688319;28;1707;-67
2023/11/25 01:18:04;;;;;;;7.80;1.97;;;;;;;;;;687107;28;985;-67
2023/11/25 01:18:24;;;;;;;6.57;1.77;;;;;;;;;;687376;28;1156;-67
2023/11/25 01:18:44;;;;;;;6.37;1.80;;;;;;;;;;687626;28;1846;-67
2023/11/25 01:19:05;;;;;;;6.83;1.80;;;;;;;;;;689037;28;4330;-67
2023/11/25 01:19:27;;;;;;;5.70;1.90;;;;;;;;;;689269;28;920;-67
2023/11/25 01:19:48;;;;;;;6.53;1.80;;;;;;;;;;687959;28;3566;-67
2023/11/25 01:20:09;;;;;;;5.47;2.00;;;;;;;;;;686388;28;1407;-67
2023/11/25 01:20:30;;;;;;;6.53;1.85;;;;;;;;;;686642;28;801;-67
2023/11/25 01:20:55;;;;;;;8.43;1.83;;;;;;;;;;684283;28;1779;-67
2023/11/25 01:21:15;;;;;;;7.60;2.00;;;;;;;;;;685119;28;1303;-67
2023/11/25 01:21:35;;;;;;;7.77;2.00;;;;;;;;;;684256;28;1408;-67
2023/11/25 01:21:55;;;;;;;6.15;1.65;;;;;;;;;;684352;28;1800;-67
2023/11/25 01:22:17;;;;;;;4.77;1.43;;;;;;;;;;685347;28;4374;-67
2023/11/25 01:22:38;;;;;;;6.18;1.85;;;;;;;;;;685323;28;2876;-66
2023/11/25 01:22:59;;;;;;;5.47;1.77;;;;;;;;;;687422;28;1036;-67
2023/11/25 01:23:22;;;;;;;5.05;1.63;;;;;;;;;;688984;28;1194;-67
2023/11/25 01:23:48;;;;;;;6.93;1.80;;;;;;;;;;689257;28;2322;-67
2023/11/25 01:24:11;;;;;;;5.57;1.63;;;;;;;;;;686777;28;818;-67
2023/11/25 01:24:31;;;;;;;5.28;1.95;;;;;;;;;;686913;28;869;-67
2023/11/25 01:24:58;;;;;;;7.00;2.00;;;;;;;;;;686566;28;2320;-67
2023/11/25 01:25:18;;;;;;;5.43;1.83;;;;;;;;;;685849;28;4349;-67
2023/11/25 01:25:38;;;;;;;5.97;1.70;;;;;;;;;;685974;28;1601;-67
2023/11/25 01:25:59;;;;;;;5.47;1.73;;;;;;;;;;687341;28;758;-67
2023/11/25 01:26:19;;;;;;;5.43;1.90;;;;;;;;;;687246;28;813;-67
2023/11/25 01:26:40;;;;;;;5.33;1.77;;;;;;;;;;686936;28;1488;-66
2023/11/25 01:27:02;;;;;;;5.93;1.60;;;;;;;;;;689577;28;1299;-67
2023/11/25 01:27:23;;;;;;;8.07;1.80;;;;;;;;;;686554;28;1651;-67
2023/11/25 01:27:43;;;;;;;4.13;1.50;;;;;;;;;;688695;28;2014;-67
2023/11/25 01:28:05;;;;;;;4.67;1.70;;;;;;;;;;689570;28;4259;-67
2023/11/25 01:28:25;;;;;;;4.63;1.70;;;;;;;;;;688817;28;892;-68
2023/11/25 01:28:45;;;;;;;6.05;1.77;;;;;;;;;;688477;28;1764;-67
2023/11/25 01:29:08;;;;;;;5.20;1.50;;;;;;;;;;689599;28;821;-67
2023/11/25 01:29:29;;;;;;;6.38;1.55;;;;;;;;;;692188;28;981;-68
2023/11/25 01:29:50;;;;;;;6.70;1.58;;;;;;;;;;691864;28;2351;-67
2023/11/25 01:30:10;;;;;;;5.85;1.50;;;;;;;;;;691885;28;899;-67
2023/11/25 01:30:31;;;;;;;6.80;1.60;;;;;;;;;;691078;28;837;-67
2023/11/25 01:30:51;;;;;;;6.00;1.70;;;;;;;;;;690486;28;1396;-67
2023/11/25 01:31:11;;;;;;;6.33;1.80;;;;;;;;;;689501;28;4268;-67
2023/11/25 01:31:32;;;;;;;9.40;2.50;;;;;;;;;;686556;28;1193;-67
2023/11/25 01:31:52;;;;;;;8.53;2.40;;;;;;;;;;683004;28;1479;-67
2023/11/25 01:32:13;;;;;;;6.45;1.88;;;;;;;;;;687707;28;857;-67
2023/11/25 01:32:34;;;;;;;7.10;1.53;;;;;;;;;;684523;28;1320;-67
2023/11/25 01:32:54;;;;;;;5.40;1.53;;;;;;;;;;683112;28;2297;-68
2023/11/25 01:33:15;;;;;;;5.97;1.77;;;;;;;;;;682157;28;1679;-68
2023/11/25 01:33:44;;;;;;;4.90;1.58;;;;;;;;;;681529;28;1707;-67
2023/11/25 01:34:04;;;;;;;6.73;2.17;;;;;;;;;;681580;29;4376;-67
2023/11/25 01:34:24;;;;;;;6.60;2.15;;;;;;;;;;680653;29;1205;-68
2023/11/25 01:34:48;;;;;;;5.10;1.50;;;;;;;;;;681727;28;1807;-67
2023/11/25 01:35:08;;;;;;;4.97;1.60;;;;;;;;;;684966;28;1376;-66
2023/11/25 01:35:28;;;;;;;6.47;1.70;;;;;;;;;;683743;28;858;-67
2023/11/25 01:35:49;;;;;;;4.60;1.60;;;;;;;;;;684091;28;1773;-67
2023/11/25 01:36:10;;;;;;;4.90;1.37;;;;;;;;;;682499;28;1325;-67
2023/11/25 01:36:30;;;;;;;6.78;1.55;;;;;;;;;;684131;28;802;-67
2023/11/25 01:36:52;;;;;;;6.47;1.63;;;;;;;;;;680445;28;1883;-67
2023/11/25 01:37:15;;;;;;;7.45;2.20;;;;;;;;;;683903;28;4485;-67
2023/11/25 01:37:35;;;;;;;5.97;1.60;;;;;;;;;;685555;28;1021;-67
2023/11/25 01:37:56;;;;;;;5.50;1.50;;;;;;;;;;686266;28;1692;-67
2023/11/25 01:38:16;;;;;;;6.53;1.70;;;;;;;;;;687220;28;1295;-67
2023/11/25 01:38:37;;;;;;;5.30;1.80;;;;;;;;;;687001;28;1041;-67
2023/11/25 01:38:58;;;;;;;5.57;1.60;;;;;;;;;;689106;28;1758;-67
2023/11/25 01:39:18;;;;;;;7.43;1.70;;;;;;;;;;689525;28;829;-67
2023/11/25 01:39:38;;;;;;;6.28;1.80;;;;;;;;;;688613;28;1943;-67
2023/11/25 01:39:59;;;;;;;6.77;1.80;;;;;;;;;;689667;28;1133;-67
2023/11/25 01:40:21;;;;;;;5.63;1.77;;;;;;;;;;686755;28;4599;-67
2023/11/25 01:40:41;;;;;;;7.05;2.15;;;;;;;;;;685851;28;2323;-67
2023/11/25 01:41:02;;;;;;;7.30;2.40;;;;;;;;;;687880;28;833;-67
2023/11/25 01:41:23;;;;;;;5.85;2.35;;;;;;;;;;687256;28;1533;-67
2023/11/25 01:41:46;;;;;;;5.93;2.20;;;;;;;;;;687140;28;2255;-68
2023/11/25 01:42:06;;;;;;;5.22;1.92;;;;;;;;;;688036;28;920;-67
2023/11/25 01:42:27;;;;;;;4.57;1.90;;;;;;;;;;689756;28;5628;-67
2023/11/25 01:42:47;;;;;;;7.00;2.10;;;;;;;;;;689037;28;1804;-67
2023/11/25 01:43:10;;;;;;;7.38;2.20;;;;;;;;;;689012;28;4406;-67
2023/11/25 01:43:31;;;;;;;6.72;2.10;;;;;;;;;;690347;28;976;-67
2023/11/25 01:43:51;;;;;;;6.23;2.60;;;;;;;;;;687665;28;2151;-67
2023/11/25 01:44:12;;;;;;;8.95;2.83;;;;;;;;;;689842;28;999;-67
2023/11/25 01:44:32;;;;;;;8.82;3.00;;;;;;;;;;690384;28;979;-67
2023/11/25 01:44:53;;;;;;;7.97;2.87;;;;;;;;;;689479;28;958;-68
2023/11/25 01:45:13;;;;;;;5.38;2.33;;;;;;;;;;687095;28;1347;-67
2023/11/25 01:45:37;;;;;;;5.60;2.13;;;;;;;;;;687408;28;810;-67
2023/11/25 01:45:58;;;;;;;7.03;2.50;;;;;;;;;;686966;28;1479;-67
2023/11/25 01:46:28;;;;;;;7.55;2.50;;;;;;;;;;686319;28;4330;-66
2023/11/25 01:46:52;;;;;;;7.10;1.90;;;;;;;;;;685570;28;1712;-67
2023/11/25 01:47:12;;;;;;;6.70;1.80;;;;;;;;;;687395;28;1943;-67
2023/11/25 01:47:32;;;;;;;6.80;2.03;;;;;;;;;;686901;28;948;-68
2023/11/25 01:47:54;;;;;;;6.65;2.20;;;;;;;;;;688676;28;2261;-67
2023/11/25 01:48:18;;;;;;;6.30;1.67;;;;;;;;;;686119;28;2079;-67
2023/11/25 01:48:38;;;;;;;5.88;1.55;;;;;;;;;;687032;28;1083;-67
2023/11/25 01:48:59;;;;;;;5.93;2.00;;;;;;;;;;685381;28;1682;-67
2023/11/25 01:49:22;;;;;;;6.93;2.08;;;;;;;;;;686249;28;4875;-67
2023/11/25 01:49:43;;;;;;;6.10;1.88;;;;;;;;;;686271;28;919;-67
2023/11/25 01:50:06;;;;;;;5.10;1.80;;;;;;;;;;687385;28;1433;-67
2023/11/25 01:50:28;;;;;;;6.07;1.80;;;;;;;;;;687111;28;802;-67
2023/11/25 01:50:51;;;;;;;6.05;2.20;;;;;;;;;;686248;28;2669;-67
2023/11/25 01:51:12;;;;;;;6.75;2.10;;;;;;;;;;683254;28;857;-67
2023/11/25 01:51:36;;;;;;;7.70;2.28;;;;;;;;;;684295;28;810;-66
2023/11/25 01:51:57;;;;;;;5.88;1.85;;;;;;;;;;682304;28;1733;-67
2023/11/25 01:52:18;;;;;;;5.63;2.10;;;;;;;;;;684004;28;4343;-67
2023/11/25 01:52:39;;;;;;;6.28;1.95;;;;;;;;;;684547;28;1258;-67
2023/11/25 01:52:59;;;;;;;5.32;1.67;;;;;;;;;;685634;28;869;-67
2023/11/25 01:53:20;;;;;;;6.55;1.90;;;;;;;;;;682145;29;1312;-67
2023/11/25 01:53:40;;;;;;;7.10;1.87;;;;;;;;;;680334;28;1842;-67
2023/11/25 01:54:02;;;;;;;5.47;1.75;;;;;;;;;;684329;28;1444;-68
2023/11/25 01:54:24;;;;;;;6.53;1.83;;;;;;;;;;682136;28;1490;-67
2023/11/25 01:54:44;;;;;;;7.25;1.88;;;;;;;;;;683870;28;1787;-67
2023/11/25 01:55:08;;;;;;;5.30;1.63;;;;;;;;;;682247;28;4295;-67
2023/11/25 01:55:32;;;;;;;7.38;1.90;;;;;;;;;;685041;28;956;-67
2023/11/25 01:55:53;;;;;;;5.88;1.70;;;;;;;;;;684354;28;2135;-67
2023/11/25 01:56:14;;;;;;;5.47;1.80;;;;;;;;;;686419;28;1403;-67
2023/11/25 01:56:34;;;;;;;5.10;1.80;;;;;;;;;;687121;28;1902;-67
2023/11/25 01:57:02;;;;;;;5.78;1.55;;;;;;;;;;686782;28;1030;-67
2023/11/25 01:57:22;;;;;;;5.45;1.60;;;;;;;;;;684735;28;1384;-67
2023/11/25 01:57:45;;;;;;;5.10;1.60;;;;;;;;;;683758;28;1798;-66
2023/11/25 01:58:07;;;;;;;5.53;1.73;;;;;;;;;;681554;28;4695;-67
2023/11/25 01:58:28;;;;;;;5.57;1.85;;;;;;;;;;682247;29;930;-67
2023/11/25 01:58:49;;;;;;;6.05;1.63;;;;;;;;;;683389;28;1740;-67
2023/11/25 01:59:11;;;;;;;7.40;1.73;;;;;;;;;;687357;28;978;-67
2023/11/25 01:59:32;;;;;;;6.88;1.80;;;;;;;;;;687555;28;825;-68
2023/11/25 01:59:52;;;;;;;5.28;1.70;;;;;;;;;;686634;28;1897;-67
2023/11/25 02:00:13;;;;;;;5.68;1.83;;;;;;;;;;687653;28;1470;-67
2023/11/25 02:00:37;;;;;;;6.47;1.80;;;;;;;;;;687891;28;894;-67
2023/11/25 02:00:58;;;;;;;5.72;1.60;;;;;;;;;;688688;28;1496;-67
2023/11/25 02:01:19;;;;;;;6.03;1.63;;;;;;;;;;689471;28;4471;-67
2023/11/25 02:01:40;;;;;;;5.60;1.80;;;;;;;;;;688715;28;2611;-66
2023/11/25 02:02:00;;;;;;;5.82;1.70;;;;;;;;;;686051;28;934;-67
2023/11/25 02:02:23;;;;;;;6.72;1.60;;;;;;;;;;687715;28;857;-68
2023/11/25 02:02:49;;;;;;;5.70;1.50;;;;;;;;;;684241;28;1678;-68
2023/11/25 02:03:09;;;;;;;5.50;1.45;;;;;;;;;;686594;28;853;-67
2023/11/25 02:03:31;;;;;;;5.78;1.63;;;;;;;;;;684717;28;1412;-66
2023/11/25 02:03:59;;;;;;;5.90;1.42;;;;;;;;;;688169;28;1843;-67
2023/11/25 02:04:19;;;;;;;5.87;1.40;;;;;;;;;;686795;28;4324;-67
2023/11/25 02:04:39;;;;;;;6.38;1.60;;;;;;;;;;687099;28;1194;-66
2023/11/25 02:05:01;;;;;;;6.20;1.60;;;;;;;;;;687195;28;1263;-67
2023/11/25 02:05:21;;;;;;;5.90;1.73;;;;;;;;;;686074;28;1742;-67
2023/11/25 02:05:42;;;;;;;6.75;1.90;;;;;;;;;;687188;28;2276;-67
2023/11/25 02:06:06;;;;;;;6.85;1.65;;;;;;;;;;687751;28;2020;-66
2023/11/25 02:06:30;;;;;;;4.70;1.35;;;;;;;;;;688394;28;1446;-67
2023/11/25 02:06:53;;;;;;;5.28;1.67;;;;;;;;;;687028;28;2543;-67
2023/11/25 02:07:17;;;;;;;11.20;1.77;;;;;;;;;;683725;28;4432;-67
2023/11/25 02:07:37;;;;;;;10.20;1.70;;;;;;;;;;683854;28;1240;-67
2023/11/25 02:07:58;;;;;;;11.93;1.77;;;;;;;;;;685887;28;2891;-68
2023/11/25 02:08:22;;;;;;;14.38;1.95;;;;;;;;;;684455;28;1409;-67
2023/11/25 02:08:43;;;;;;;5.10;1.50;;;;;;;;;;684580;28;1810;-67
2023/11/25 02:09:03;;;;;;;4.85;1.60;;;;;;;;;;688064;28;850;-67
2023/11/25 02:09:24;;;;;;;6.03;1.60;;;;;;;;;;689864;28;920;-67
2023/11/25 02:09:45;;;;;;;4.70;1.60;;;;;;;;;;689812;28;1763;-67
2023/11/25 02:10:06;;;;;;;4.63;1.77;;;;;;;;;;688498;28;4592;-67
2023/11/25 02:10:26;;;;;;;6.50;1.70;;;;;;;;;;687489;28;1333;-67
2023/11/25 02:10:46;;;;;;;6.57;1.70;;;;;;;;;;687378;28;2283;-68
2023/11/25 02:11:09;;;;;;;6.50;1.90;;;;;;;;;;687940;28;821;-68
2023/11/25 02:11:29;;;;;;;6.65;1.80;;;;;;;;;;687187;28;855;-67
2023/11/25 02:11:56;;;;;;;5.27;1.63;;;;;;;;;;686928;28;1515;-67
2023/11/25 02:12:17;;;;;;;6.28;1.80;;;;;;;;;;690289;28;1420;-67